AWC67P ENTC-EGCC
Flight info
| Callsign | AWC67P |
|---|---|
| Flight time | 2h 45m |
| Altitude | 38000 |
| Route | AMIMO DCT BDO DCT KVB DCT KLONN DCT BEVAM DCT ROBEM DCT NATEB/N0419F250 P18 TILNI |
| Aircraft | A21N/M-SDE2E3FGHIRWXY/LB1 |
Departure
| Time | 2026-05-04 17:13 |
|---|---|
| Airport | Tromsø Airport (ENTC) |
Arrival
| Time | 2026-05-04 19:58 |
|---|---|
| Airport | Manchester Airport (EGCC) |
| Time | Latitude | Longitude | Altitude | Speed | Heading |
|---|---|---|---|---|---|
| 2026-05-04 17:12 | 69.60154 | 18.32074 | 16299 ft | 428 kts | 209° |
| 2026-05-04 17:13 | 69.52260 | 18.19557 | 17685 ft | 437 kts | 209° |
| 2026-05-04 17:14 | 69.44181 | 18.06850 | 19332 ft | 447 kts | 209° |
| 2026-05-04 17:14 | 69.41445 | 18.02539 | 19973 ft | 451 kts | 209° |
| 2026-05-04 17:14 | 69.35945 | 17.93648 | 21298 ft | 459 kts | 210° |
| 2026-05-04 17:15 | 69.33166 | 17.89100 | 22035 ft | 464 kts | 210° |
| 2026-05-04 17:15 | 69.27524 | 17.79890 | 23343 ft | 472 kts | 210° |
| 2026-05-04 17:16 | 69.21816 | 17.70627 | 24429 ft | 480 kts | 211° |
| 2026-05-04 17:16 | 69.13468 | 17.54939 | 26296 ft | 480 kts | 214° |
| 2026-05-04 17:17 | 69.10702 | 17.49730 | 26946 ft | 478 kts | 214° |
| 2026-05-04 17:17 | 69.02431 | 17.34319 | 28783 ft | 475 kts | 214° |
| 2026-05-04 17:18 | 68.99685 | 17.29212 | 29368 ft | 474 kts | 214° |
| 2026-05-04 17:18 | 68.94201 | 17.19111 | 30484 ft | 471 kts | 214° |
| 2026-05-04 17:19 | 68.88775 | 17.09173 | 31488 ft | 469 kts | 214° |
| 2026-05-04 17:19 | 68.83343 | 16.99249 | 32458 ft | 467 kts | 214° |
| 2026-05-04 17:20 | 68.77914 | 16.89391 | 33365 ft | 466 kts | 213° |
| 2026-05-04 17:20 | 68.72512 | 16.79622 | 34227 ft | 464 kts | 213° |
| 2026-05-04 17:20 | 68.69814 | 16.74777 | 34608 ft | 463 kts | 213° |
| 2026-05-04 17:21 | 68.64423 | 16.65159 | 35345 ft | 461 kts | 213° |
| 2026-05-04 17:21 | 68.59053 | 16.55603 | 36012 ft | 460 kts | 213° |
| 2026-05-04 17:22 | 68.56366 | 16.50839 | 36313 ft | 460 kts | 213° |
| 2026-05-04 17:22 | 68.53680 | 16.46110 | 36585 ft | 460 kts | 213° |
| 2026-05-04 17:23 | 68.45649 | 16.32018 | 37357 ft | 460 kts | 213° |
| 2026-05-04 17:23 | 68.42960 | 16.27326 | 37590 ft | 460 kts | 213° |
| 2026-05-04 17:23 | 68.37571 | 16.17983 | 38034 ft | 460 kts | 213° |
| 2026-05-04 17:24 | 68.34877 | 16.13320 | 38207 ft | 461 kts | 213° |
| 2026-05-04 17:25 | 68.24071 | 15.94762 | 38206 ft | 460 kts | 213° |
| 2026-05-04 17:26 | 68.13255 | 15.76395 | 38203 ft | 460 kts | 212° |
| 2026-05-04 17:27 | 67.99746 | 15.53771 | 38200 ft | 460 kts | 212° |
| 2026-05-04 17:28 | 67.88884 | 15.35795 | 38203 ft | 460 kts | 212° |
| 2026-05-04 17:29 | 67.72601 | 15.09196 | 38213 ft | 460 kts | 212° |
| 2026-05-04 17:31 | 67.58943 | 14.87301 | 38200 ft | 460 kts | 212° |
| 2026-05-04 17:32 | 67.45278 | 14.65610 | 38200 ft | 460 kts | 211° |
| 2026-05-04 17:33 | 67.34357 | 14.48470 | 38201 ft | 460 kts | 211° |
| 2026-05-04 17:34 | 67.23579 | 14.30677 | 38201 ft | 460 kts | 217° |
| 2026-05-04 17:35 | 67.10722 | 14.06225 | 38200 ft | 460 kts | 217° |
| 2026-05-04 17:36 | 67.05602 | 13.96574 | 38198 ft | 460 kts | 216° |
| 2026-05-04 17:36 | 67.00441 | 13.86909 | 38198 ft | 460 kts | 217° |
| 2026-05-04 17:37 | 66.95280 | 13.77282 | 38202 ft | 460 kts | 216° |
| 2026-05-04 17:37 | 66.90098 | 13.67715 | 38201 ft | 460 kts | 216° |
| 2026-05-04 17:38 | 66.84915 | 13.58185 | 38202 ft | 460 kts | 216° |
| 2026-05-04 17:38 | 66.79734 | 13.48682 | 38200 ft | 460 kts | 216° |
| 2026-05-04 17:39 | 66.71983 | 13.34573 | 38198 ft | 460 kts | 216° |
| 2026-05-04 17:39 | 66.66781 | 13.25180 | 38200 ft | 460 kts | 216° |
| 2026-05-04 17:40 | 66.61576 | 13.15817 | 38200 ft | 460 kts | 216° |
| 2026-05-04 17:40 | 66.56364 | 13.06504 | 38201 ft | 460 kts | 216° |
| 2026-05-04 17:41 | 66.51149 | 12.97211 | 38201 ft | 460 kts | 216° |
| 2026-05-04 17:41 | 66.45924 | 12.87973 | 38202 ft | 460 kts | 216° |
| 2026-05-04 17:42 | 66.40739 | 12.78812 | 38201 ft | 460 kts | 216° |
| 2026-05-04 17:42 | 66.35501 | 12.69653 | 38202 ft | 460 kts | 215° |
| 2026-05-04 17:43 | 66.30264 | 12.60536 | 38201 ft | 460 kts | 215° |
| 2026-05-04 17:43 | 66.25013 | 12.51448 | 38202 ft | 460 kts | 215° |
| 2026-05-04 17:44 | 66.19772 | 12.42399 | 38201 ft | 460 kts | 215° |
| 2026-05-04 17:44 | 66.14523 | 12.33360 | 38201 ft | 460 kts | 215° |
| 2026-05-04 17:45 | 66.09295 | 12.24453 | 38199 ft | 460 kts | 215° |
| 2026-05-04 17:45 | 66.04026 | 12.15515 | 38202 ft | 460 kts | 215° |
| 2026-05-04 17:46 | 65.98756 | 12.06615 | 38198 ft | 460 kts | 215° |
| 2026-05-04 17:46 | 65.93479 | 11.97737 | 38201 ft | 460 kts | 215° |
| 2026-05-04 17:47 | 65.88200 | 11.88903 | 38201 ft | 460 kts | 214° |
| 2026-05-04 17:47 | 65.82915 | 11.80105 | 38202 ft | 460 kts | 214° |
| 2026-05-04 17:48 | 65.77656 | 11.71426 | 38200 ft | 460 kts | 214° |
| 2026-05-04 17:48 | 65.72362 | 11.62706 | 38202 ft | 460 kts | 214° |
| 2026-05-04 17:49 | 65.67061 | 11.54007 | 38201 ft | 460 kts | 214° |
| 2026-05-04 17:49 | 65.61749 | 11.45373 | 38199 ft | 460 kts | 214° |
| 2026-05-04 17:50 | 65.56446 | 11.36748 | 38200 ft | 460 kts | 214° |
| 2026-05-04 17:50 | 65.51124 | 11.28163 | 38200 ft | 460 kts | 214° |
| 2026-05-04 17:51 | 65.45808 | 11.19606 | 38200 ft | 460 kts | 214° |
| 2026-05-04 17:51 | 65.40520 | 11.11139 | 38199 ft | 460 kts | 214° |
| 2026-05-04 17:52 | 65.35190 | 11.02678 | 38199 ft | 460 kts | 214° |
| 2026-05-04 17:52 | 65.29856 | 10.94218 | 38201 ft | 460 kts | 214° |
| 2026-05-04 17:53 | 65.24513 | 10.85825 | 38202 ft | 460 kts | 214° |
| 2026-05-04 17:53 | 65.19172 | 10.77438 | 38200 ft | 460 kts | 213° |
| 2026-05-04 17:54 | 65.13852 | 10.69185 | 38200 ft | 460 kts | 213° |
| 2026-05-04 17:54 | 65.08494 | 10.60887 | 38202 ft | 460 kts | 213° |
| 2026-05-04 17:55 | 65.03135 | 10.52612 | 38201 ft | 460 kts | 213° |
| 2026-05-04 17:55 | 64.97768 | 10.44372 | 38200 ft | 460 kts | 213° |
| 2026-05-04 17:56 | 64.92399 | 10.36165 | 38201 ft | 460 kts | 213° |
| 2026-05-04 17:56 | 64.87028 | 10.27987 | 38200 ft | 460 kts | 213° |
| 2026-05-04 17:57 | 64.81651 | 10.19838 | 38200 ft | 460 kts | 213° |
| 2026-05-04 17:57 | 64.76317 | 10.11757 | 38201 ft | 460 kts | 213° |
| 2026-05-04 17:58 | 64.70935 | 10.03648 | 38202 ft | 460 kts | 213° |
| 2026-05-04 17:58 | 64.65545 | 9.95605 | 38200 ft | 460 kts | 213° |
| 2026-05-04 17:59 | 64.60148 | 9.87601 | 38200 ft | 460 kts | 213° |
| 2026-05-04 18:00 | 64.52045 | 9.75637 | 38199 ft | 460 kts | 212° |
| 2026-05-04 18:00 | 64.46644 | 9.67684 | 38203 ft | 460 kts | 213° |
| 2026-05-04 18:01 | 64.41268 | 9.59833 | 38201 ft | 460 kts | 212° |
| 2026-05-04 18:01 | 64.35857 | 9.51958 | 38201 ft | 460 kts | 212° |
| 2026-05-04 18:02 | 64.27730 | 9.40196 | 38201 ft | 460 kts | 212° |
| 2026-05-04 18:02 | 64.22307 | 9.32387 | 38198 ft | 460 kts | 212° |
| 2026-05-04 18:03 | 64.16872 | 9.24634 | 38201 ft | 460 kts | 212° |
| 2026-05-04 18:03 | 64.11447 | 9.16885 | 38202 ft | 460 kts | 212° |
| 2026-05-04 18:04 | 64.06041 | 9.09222 | 38200 ft | 460 kts | 212° |
| 2026-05-04 18:05 | 63.97865 | 8.97705 | 38202 ft | 460 kts | 212° |
| 2026-05-04 18:05 | 63.92409 | 8.90077 | 38202 ft | 460 kts | 212° |
| 2026-05-04 18:06 | 63.84221 | 8.78657 | 38200 ft | 460 kts | 212° |
| 2026-05-04 18:06 | 63.81477 | 8.74833 | 36478 ft | 481 kts | 212° |
| 2026-05-04 18:06 | 63.78691 | 8.70871 | 36746 ft | 462 kts | 213° |
| 2026-05-04 18:07 | 63.76030 | 8.67024 | 37662 ft | 446 kts | 213° |
| 2026-05-04 18:07 | 63.74505 | 8.64850 | 38055 ft | 442 kts | 211° |
| 2026-05-04 18:08 | 63.71531 | 8.60896 | 38245 ft | 445 kts | 210° |
| 2026-05-04 18:08 | 63.66113 | 8.53682 | 38233 ft | 459 kts | 211° |
| 2026-05-04 18:09 | 63.56078 | 8.40061 | 38201 ft | 461 kts | 211° |
| 2026-05-04 18:10 | 63.49698 | 8.31396 | 38200 ft | 461 kts | 211° |
| 2026-05-04 18:10 | 63.44204 | 8.24028 | 38199 ft | 461 kts | 211° |
| 2026-05-04 18:11 | 63.39633 | 8.17902 | 38200 ft | 461 kts | 211° |
| 2026-05-04 18:11 | 63.34137 | 8.10558 | 38199 ft | 461 kts | 211° |
| 2026-05-04 18:12 | 63.28631 | 8.03244 | 38197 ft | 461 kts | 211° |
| 2026-05-04 18:12 | 63.23120 | 7.95955 | 38200 ft | 461 kts | 211° |
| 2026-05-04 18:13 | 63.17606 | 7.88709 | 38200 ft | 461 kts | 211° |
| 2026-05-04 18:14 | 63.09310 | 7.77966 | 38202 ft | 461 kts | 210° |
| 2026-05-04 18:14 | 63.03761 | 7.71064 | 38201 ft | 461 kts | 210° |
| 2026-05-04 18:15 | 62.92575 | 7.57276 | 38198 ft | 461 kts | 209° |
| 2026-05-04 18:16 | 62.86979 | 7.50397 | 38198 ft | 461 kts | 210° |
| 2026-05-04 18:16 | 62.81386 | 7.43562 | 38201 ft | 461 kts | 209° |
| 2026-05-04 18:17 | 62.73010 | 7.33412 | 38201 ft | 461 kts | 209° |
| 2026-05-04 18:18 | 62.64594 | 7.23278 | 38200 ft | 461 kts | 209° |
| 2026-05-04 18:18 | 62.58987 | 7.16547 | 38201 ft | 461 kts | 209° |
| 2026-05-04 18:19 | 62.50558 | 7.06491 | 38200 ft | 461 kts | 209° |
| 2026-05-04 18:19 | 62.44943 | 6.99802 | 38201 ft | 461 kts | 209° |
| 2026-05-04 18:20 | 62.39323 | 6.93156 | 38197 ft | 461 kts | 209° |
| 2026-05-04 18:20 | 62.33690 | 6.86536 | 38201 ft | 461 kts | 209° |
| 2026-05-04 18:21 | 62.28100 | 6.79989 | 38201 ft | 461 kts | 209° |
| 2026-05-04 18:21 | 62.22464 | 6.73420 | 38201 ft | 461 kts | 209° |
| 2026-05-04 18:22 | 62.16833 | 6.66852 | 38197 ft | 461 kts | 208° |
| 2026-05-04 18:22 | 62.11193 | 6.60336 | 38201 ft | 461 kts | 208° |
| 2026-05-04 18:23 | 62.05551 | 6.53853 | 38201 ft | 461 kts | 208° |
| 2026-05-04 18:23 | 61.99901 | 6.47372 | 38199 ft | 461 kts | 208° |
| 2026-05-04 18:24 | 61.94256 | 6.40933 | 38201 ft | 461 kts | 208° |
| 2026-05-04 18:24 | 61.88641 | 6.34534 | 38201 ft | 461 kts | 208° |
| 2026-05-04 18:25 | 61.82984 | 6.28131 | 38199 ft | 461 kts | 208° |
| 2026-05-04 18:25 | 61.77325 | 6.21754 | 38200 ft | 461 kts | 208° |
| 2026-05-04 18:26 | 61.71657 | 6.15393 | 38202 ft | 462 kts | 208° |
| 2026-05-04 18:26 | 61.65987 | 6.09046 | 38200 ft | 461 kts | 208° |
| 2026-05-04 18:27 | 61.60311 | 6.02735 | 38197 ft | 461 kts | 208° |
| 2026-05-04 18:27 | 61.54634 | 5.96437 | 38198 ft | 462 kts | 208° |
| 2026-05-04 18:28 | 61.48996 | 5.90199 | 38200 ft | 461 kts | 208° |
| 2026-05-04 18:28 | 61.43311 | 5.83948 | 38201 ft | 462 kts | 208° |
| 2026-05-04 18:29 | 61.37625 | 5.77726 | 38202 ft | 461 kts | 208° |
| 2026-05-04 18:29 | 61.31938 | 5.71524 | 38202 ft | 461 kts | 208° |
| 2026-05-04 18:30 | 61.23404 | 5.62250 | 38202 ft | 461 kts | 208° |
| 2026-05-04 18:31 | 61.17744 | 5.56133 | 38200 ft | 462 kts | 207° |
| 2026-05-04 18:31 | 61.12046 | 5.50027 | 38200 ft | 461 kts | 207° |
| 2026-05-04 18:32 | 61.06344 | 5.43929 | 38203 ft | 462 kts | 207° |
| 2026-05-04 18:32 | 61.00636 | 5.37844 | 38201 ft | 462 kts | 207° |
| 2026-05-04 18:33 | 60.94928 | 5.31774 | 38200 ft | 461 kts | 207° |
| 2026-05-04 18:33 | 60.89225 | 5.25730 | 38199 ft | 461 kts | 207° |
| 2026-05-04 18:34 | 60.83545 | 5.19769 | 38201 ft | 461 kts | 207° |
| 2026-05-04 18:34 | 60.77835 | 5.13777 | 38201 ft | 461 kts | 207° |
| 2026-05-04 18:35 | 60.72114 | 5.07797 | 38200 ft | 462 kts | 207° |
| 2026-05-04 18:35 | 60.66399 | 5.01837 | 38200 ft | 461 kts | 207° |
| 2026-05-04 18:36 | 60.60673 | 4.95906 | 38201 ft | 461 kts | 207° |
| 2026-05-04 18:36 | 60.54949 | 4.89991 | 38203 ft | 462 kts | 207° |
| 2026-05-04 18:37 | 60.49219 | 4.84101 | 38201 ft | 462 kts | 207° |
| 2026-05-04 18:37 | 60.43492 | 4.78226 | 38246 ft | 462 kts | 207° |
| 2026-05-04 18:37 | 60.40618 | 4.75299 | 38468 ft | 462 kts | 207° |
| 2026-05-04 18:38 | 60.37751 | 4.72378 | 38742 ft | 461 kts | 207° |
| 2026-05-04 18:38 | 60.34927 | 4.69509 | 38986 ft | 460 kts | 207° |
| 2026-05-04 18:38 | 60.32070 | 4.66603 | 39210 ft | 460 kts | 207° |
| 2026-05-04 18:38 | 60.29212 | 4.63700 | 39411 ft | 460 kts | 207° |
| 2026-05-04 18:39 | 60.26353 | 4.60804 | 39616 ft | 460 kts | 207° |
| 2026-05-04 18:39 | 60.23488 | 4.57911 | 39826 ft | 460 kts | 207° |
| 2026-05-04 18:39 | 60.20649 | 4.54956 | 40004 ft | 460 kts | 212° |
| 2026-05-04 18:39 | 60.18007 | 4.51331 | 40178 ft | 460 kts | 216° |
| 2026-05-04 18:40 | 60.15426 | 4.47523 | 40243 ft | 460 kts | 217° |
| 2026-05-04 18:40 | 60.10253 | 4.39965 | 40214 ft | 460 kts | 216° |
| 2026-05-04 18:41 | 60.05042 | 4.32522 | 40203 ft | 460 kts | 216° |
| 2026-05-04 18:41 | 59.99829 | 4.25102 | 40199 ft | 460 kts | 216° |
| 2026-05-04 18:42 | 59.94636 | 4.17761 | 40203 ft | 460 kts | 216° |
| 2026-05-04 18:42 | 59.89408 | 4.10409 | 40201 ft | 460 kts | 216° |
| 2026-05-04 18:43 | 59.84179 | 4.03072 | 40199 ft | 460 kts | 216° |
| 2026-05-04 18:43 | 59.78945 | 3.95731 | 40201 ft | 460 kts | 215° |
| 2026-05-04 18:44 | 59.73707 | 3.88447 | 40197 ft | 460 kts | 215° |
| 2026-05-04 18:44 | 59.68459 | 3.81172 | 40197 ft | 460 kts | 215° |
| 2026-05-04 18:45 | 59.63219 | 3.73925 | 40198 ft | 460 kts | 215° |
| 2026-05-04 18:45 | 59.58001 | 3.66754 | 40196 ft | 460 kts | 215° |
| 2026-05-04 18:46 | 59.52747 | 3.59531 | 40197 ft | 460 kts | 215° |
| 2026-05-04 18:46 | 59.47489 | 3.52354 | 40200 ft | 460 kts | 215° |
| 2026-05-04 18:47 | 59.42228 | 3.45185 | 40200 ft | 460 kts | 215° |
| 2026-05-04 18:47 | 59.36961 | 3.38042 | 40200 ft | 460 kts | 215° |
| 2026-05-04 18:48 | 59.31689 | 3.30925 | 40198 ft | 460 kts | 215° |
| 2026-05-04 18:48 | 59.26443 | 3.23889 | 40201 ft | 460 kts | 214° |
| 2026-05-04 18:49 | 59.21163 | 3.16807 | 40203 ft | 460 kts | 215° |
| 2026-05-04 18:49 | 59.15879 | 3.09752 | 40202 ft | 460 kts | 214° |
| 2026-05-04 18:50 | 59.10593 | 3.02720 | 40200 ft | 460 kts | 214° |
| 2026-05-04 18:50 | 59.05308 | 2.95707 | 40200 ft | 460 kts | 214° |
| 2026-05-04 18:51 | 59.00016 | 2.88713 | 40201 ft | 460 kts | 214° |
| 2026-05-04 18:51 | 58.94756 | 2.81790 | 40200 ft | 460 kts | 214° |
| 2026-05-04 18:52 | 58.89455 | 2.74850 | 40204 ft | 460 kts | 214° |
| 2026-05-04 18:52 | 58.84150 | 2.67933 | 40200 ft | 460 kts | 214° |
| 2026-05-04 18:53 | 58.78835 | 2.61019 | 40203 ft | 460 kts | 214° |
| 2026-05-04 18:53 | 58.73528 | 2.54143 | 40203 ft | 460 kts | 214° |
| 2026-05-04 18:54 | 58.68208 | 2.47276 | 40202 ft | 460 kts | 214° |
| 2026-05-04 18:54 | 58.62885 | 2.40433 | 40195 ft | 460 kts | 214° |
| 2026-05-04 18:55 | 58.57594 | 2.33658 | 40197 ft | 460 kts | 214° |
| 2026-05-04 18:55 | 58.49601 | 2.23469 | 40199 ft | 460 kts | 214° |
| 2026-05-04 18:56 | 58.44268 | 2.16705 | 40201 ft | 460 kts | 214° |
| 2026-05-04 18:56 | 58.38927 | 2.09946 | 40195 ft | 460 kts | 214° |
| 2026-05-04 18:57 | 58.33590 | 2.03224 | 40199 ft | 460 kts | 214° |
| 2026-05-04 18:57 | 58.28205 | 1.96470 | 40203 ft | 466 kts | 213° |
| 2026-05-04 18:58 | 58.22821 | 1.89738 | 40204 ft | 466 kts | 213° |
| 2026-05-04 18:58 | 58.17402 | 1.82984 | 40204 ft | 466 kts | 213° |
| 2026-05-04 18:59 | 58.11975 | 1.76265 | 40202 ft | 466 kts | 213° |
| 2026-05-04 18:59 | 58.06545 | 1.69559 | 40198 ft | 466 kts | 213° |
| 2026-05-04 19:00 | 58.01121 | 1.62866 | 40203 ft | 466 kts | 213° |
| 2026-05-04 19:00 | 57.95685 | 1.56191 | 40202 ft | 466 kts | 213° |
| 2026-05-04 19:01 | 57.90251 | 1.49543 | 40200 ft | 466 kts | 213° |
| 2026-05-04 19:01 | 57.84849 | 1.42960 | 40200 ft | 466 kts | 213° |
| 2026-05-04 19:02 | 57.79405 | 1.36354 | 40201 ft | 466 kts | 213° |
| 2026-05-04 19:02 | 57.73954 | 1.29770 | 40202 ft | 466 kts | 213° |
| 2026-05-04 19:03 | 57.68505 | 1.23194 | 40201 ft | 466 kts | 213° |
| 2026-05-04 19:03 | 57.63053 | 1.16642 | 40203 ft | 466 kts | 213° |
| 2026-05-04 19:04 | 57.57595 | 1.10115 | 40202 ft | 466 kts | 213° |
| 2026-05-04 19:04 | 57.52168 | 1.03645 | 40203 ft | 466 kts | 213° |
| 2026-05-04 19:05 | 57.46707 | 0.97152 | 40200 ft | 466 kts | 213° |
| 2026-05-04 19:05 | 57.41237 | 0.90685 | 40202 ft | 466 kts | 213° |
| 2026-05-04 19:06 | 57.35768 | 0.84231 | 40198 ft | 466 kts | 213° |
| 2026-05-04 19:06 | 57.30294 | 0.77792 | 40203 ft | 466 kts | 213° |
| 2026-05-04 19:07 | 57.24817 | 0.71377 | 40202 ft | 466 kts | 213° |
| 2026-05-04 19:07 | 57.19372 | 0.65022 | 40197 ft | 466 kts | 212° |
| 2026-05-04 19:08 | 57.13887 | 0.58646 | 40200 ft | 466 kts | 212° |
| 2026-05-04 19:08 | 57.08402 | 0.52287 | 40204 ft | 466 kts | 212° |
| 2026-05-04 19:09 | 57.02908 | 0.45949 | 40199 ft | 466 kts | 212° |
| 2026-05-04 19:09 | 56.97411 | 0.39630 | 40201 ft | 466 kts | 212° |
| 2026-05-04 19:10 | 56.91914 | 0.33337 | 40201 ft | 466 kts | 212° |
| 2026-05-04 19:10 | 56.86451 | 0.27091 | 40199 ft | 466 kts | 212° |
| 2026-05-04 19:11 | 56.80948 | 0.20820 | 40200 ft | 466 kts | 212° |
| 2026-05-04 19:11 | 56.75254 | 0.15173 | 40204 ft | 466 kts | 208° |
| 2026-05-04 19:12 | 56.66643 | 0.06915 | 40200 ft | 466 kts | 208° |
| 2026-05-04 19:13 | 56.60911 | 0.01385 | 40201 ft | 466 kts | 208° |
| 2026-05-04 19:13 | 56.55184 | -0.04127 | 40203 ft | 466 kts | 208° |
| 2026-05-04 19:14 | 56.49486 | -0.09586 | 40202 ft | 466 kts | 208° |
| 2026-05-04 19:14 | 56.43747 | -0.15062 | 40200 ft | 466 kts | 208° |
| 2026-05-04 19:15 | 56.38007 | -0.20516 | 40201 ft | 466 kts | 208° |
| 2026-05-04 19:15 | 56.32266 | -0.25958 | 40201 ft | 466 kts | 208° |
| 2026-05-04 19:16 | 56.26521 | -0.31388 | 40200 ft | 466 kts | 208° |
| 2026-05-04 19:16 | 56.20770 | -0.36796 | 40198 ft | 466 kts | 208° |
| 2026-05-04 19:17 | 56.15058 | -0.42151 | 40200 ft | 466 kts | 208° |
| 2026-05-04 19:17 | 56.09305 | -0.47527 | 40198 ft | 466 kts | 207° |
| 2026-05-04 19:18 | 56.03550 | -0.52877 | 40201 ft | 466 kts | 207° |
| 2026-05-04 19:18 | 55.97794 | -0.58219 | 40200 ft | 466 kts | 207° |
| 2026-05-04 19:19 | 55.92031 | -0.63554 | 40203 ft | 466 kts | 207° |
| 2026-05-04 19:19 | 55.86273 | -0.68875 | 40198 ft | 466 kts | 207° |
| 2026-05-04 19:20 | 55.80506 | -0.74171 | 40198 ft | 466 kts | 207° |
| 2026-05-04 19:20 | 55.74782 | -0.79416 | 40199 ft | 466 kts | 207° |
| 2026-05-04 19:21 | 55.69014 | -0.84676 | 40200 ft | 466 kts | 207° |
| 2026-05-04 19:21 | 55.63237 | -0.89928 | 40200 ft | 466 kts | 207° |
| 2026-05-04 19:22 | 55.57464 | -0.95164 | 40199 ft | 466 kts | 207° |
| 2026-05-04 19:22 | 55.51689 | -1.00380 | 40203 ft | 466 kts | 207° |
| 2026-05-04 19:23 | 55.45913 | -1.05582 | 40201 ft | 465 kts | 207° |
| 2026-05-04 19:23 | 55.40195 | -1.10714 | 40199 ft | 460 kts | 207° |
| 2026-05-04 19:24 | 55.34528 | -1.15805 | 40200 ft | 461 kts | 207° |
| 2026-05-04 19:24 | 55.28812 | -1.20904 | 40200 ft | 461 kts | 207° |
| 2026-05-04 19:25 | 55.23094 | -1.25981 | 40203 ft | 461 kts | 207° |
| 2026-05-04 19:25 | 55.17378 | -1.31044 | 40201 ft | 461 kts | 207° |
| 2026-05-04 19:26 | 55.11661 | -1.36102 | 40198 ft | 461 kts | 207° |
| 2026-05-04 19:26 | 55.05976 | -1.41112 | 40200 ft | 461 kts | 207° |
| 2026-05-04 19:27 | 55.00270 | -1.46122 | 39996 ft | 455 kts | 207° |
| 2026-05-04 19:27 | 54.97419 | -1.48619 | 39111 ft | 461 kts | 207° |
| 2026-05-04 19:27 | 54.94555 | -1.51121 | 38365 ft | 462 kts | 207° |
| 2026-05-04 19:27 | 54.91687 | -1.53623 | 37647 ft | 461 kts | 207° |
| 2026-05-04 19:28 | 54.88819 | -1.56123 | 36888 ft | 461 kts | 207° |
| 2026-05-04 19:28 | 54.85954 | -1.58616 | 36131 ft | 459 kts | 207° |
| 2026-05-04 19:28 | 54.84062 | -1.60262 | 35652 ft | 460 kts | 207° |
| 2026-05-04 19:28 | 54.81200 | -1.62750 | 34899 ft | 460 kts | 207° |
| 2026-05-04 19:29 | 54.78335 | -1.65231 | 34073 ft | 462 kts | 207° |
| 2026-05-04 19:29 | 54.75450 | -1.67729 | 33222 ft | 464 kts | 207° |
| 2026-05-04 19:29 | 54.72553 | -1.70230 | 32346 ft | 466 kts | 207° |
| 2026-05-04 19:29 | 54.69644 | -1.72735 | 31456 ft | 468 kts | 207° |
| 2026-05-04 19:30 | 54.66729 | -1.75244 | 30563 ft | 469 kts | 207° |
| 2026-05-04 19:30 | 54.63798 | -1.77766 | 29597 ft | 470 kts | 207° |
| 2026-05-04 19:30 | 54.60865 | -1.80283 | 28545 ft | 473 kts | 206° |
| 2026-05-04 19:30 | 54.57909 | -1.82810 | 27445 ft | 475 kts | 206° |
| 2026-05-04 19:31 | 54.54842 | -1.84933 | 26341 ft | 477 kts | 197° |
| 2026-05-04 19:31 | 54.51593 | -1.86012 | 25222 ft | 475 kts | 186° |
| 2026-05-04 19:31 | 54.48282 | -1.86496 | 24061 ft | 478 kts | 184° |
| 2026-05-04 19:31 | 54.44977 | -1.86913 | 23192 ft | 474 kts | 184° |
| 2026-05-04 19:32 | 54.41743 | -1.87330 | 22696 ft | 471 kts | 184° |
| 2026-05-04 19:32 | 54.38482 | -1.87767 | 22434 ft | 469 kts | 184° |
| 2026-05-04 19:32 | 54.35277 | -1.88206 | 21901 ft | 456 kts | 184° |
| 2026-05-04 19:32 | 54.32118 | -1.88639 | 20737 ft | 455 kts | 184° |
| 2026-05-04 19:33 | 54.28961 | -1.89071 | 19502 ft | 456 kts | 184° |
| 2026-05-04 19:33 | 54.25819 | -1.89505 | 18574 ft | 451 kts | 184° |
| 2026-05-04 19:33 | 54.22713 | -1.89935 | 17615 ft | 445 kts | 184° |
| 2026-05-04 19:33 | 54.19649 | -1.90354 | 16637 ft | 438 kts | 184° |
| 2026-05-04 19:34 | 54.16657 | -1.90763 | 15367 ft | 425 kts | 184° |
| 2026-05-04 19:34 | 54.13751 | -1.91159 | 14132 ft | 416 kts | 184° |
| 2026-05-04 19:34 | 54.10947 | -1.91547 | 13469 ft | 392 kts | 185° |
| 2026-05-04 19:34 | 54.08327 | -1.91905 | 13056 ft | 365 kts | 184° |
| 2026-05-04 19:35 | 54.05881 | -1.92232 | 12692 ft | 342 kts | 184° |
| 2026-05-04 19:35 | 54.03570 | -1.92542 | 12279 ft | 324 kts | 184° |
| 2026-05-04 19:35 | 54.01371 | -1.92838 | 11862 ft | 310 kts | 184° |
| 2026-05-04 19:35 | 53.99290 | -1.93119 | 11351 ft | 301 kts | 184° |
| 2026-05-04 19:36 | 53.97213 | -1.93399 | 10669 ft | 299 kts | 184° |
| 2026-05-04 19:36 | 53.95135 | -1.93679 | 10195 ft | 299 kts | 184° |
| 2026-05-04 19:36 | 53.93070 | -1.93959 | 9757 ft | 297 kts | 184° |
| 2026-05-04 19:36 | 53.91020 | -1.94236 | 9337 ft | 295 kts | 184° |
| 2026-05-04 19:37 | 53.88987 | -1.94509 | 8957 ft | 291 kts | 184° |
| 2026-05-04 19:37 | 53.86981 | -1.94779 | 8600 ft | 287 kts | 184° |
| 2026-05-04 19:37 | 53.84992 | -1.95048 | 8258 ft | 287 kts | 184° |
| 2026-05-04 19:37 | 53.83000 | -1.95316 | 7949 ft | 285 kts | 184° |
| 2026-05-04 19:38 | 53.81038 | -1.95579 | 7688 ft | 283 kts | 184° |
| 2026-05-04 19:38 | 53.79074 | -1.95844 | 7447 ft | 282 kts | 184° |
| 2026-05-04 19:38 | 53.77120 | -1.96105 | 7226 ft | 281 kts | 184° |
| 2026-05-04 19:38 | 53.75166 | -1.96365 | 6998 ft | 281 kts | 184° |
| 2026-05-04 19:39 | 53.73225 | -1.96625 | 6770 ft | 280 kts | 184° |
| 2026-05-04 19:39 | 53.71286 | -1.96884 | 6538 ft | 279 kts | 184° |
| 2026-05-04 19:39 | 53.69355 | -1.97141 | 6308 ft | 278 kts | 184° |
| 2026-05-04 19:39 | 53.67431 | -1.97398 | 6074 ft | 277 kts | 184° |
| 2026-05-04 19:40 | 53.65537 | -1.97650 | 5845 ft | 276 kts | 184° |
| 2026-05-04 19:40 | 53.63603 | -1.97909 | 5615 ft | 275 kts | 184° |
| 2026-05-04 19:40 | 53.61720 | -1.98160 | 5376 ft | 274 kts | 184° |
| 2026-05-04 19:40 | 53.59824 | -1.98413 | 5141 ft | 273 kts | 184° |
| 2026-05-04 19:41 | 53.57918 | -1.98666 | 4893 ft | 267 kts | 184° |
| 2026-05-04 19:41 | 53.56112 | -1.98905 | 4656 ft | 261 kts | 184° |
| 2026-05-04 19:41 | 53.54320 | -1.99141 | 4404 ft | 255 kts | 184° |
| 2026-05-04 19:41 | 53.52575 | -1.99373 | 4147 ft | 248 kts | 184° |
| 2026-05-04 19:42 | 53.50876 | -1.99597 | 3885 ft | 241 kts | 184° |
| 2026-05-04 19:42 | 53.49235 | -1.99898 | 3628 ft | 234 kts | 193° |
| 2026-05-04 19:42 | 53.47868 | -2.01177 | 3482 ft | 220 kts | 225° |
| 2026-05-04 19:42 | 53.46931 | -2.03064 | 3461 ft | 201 kts | 236° |
| 2026-05-04 19:43 | 53.46156 | -2.04940 | 3330 ft | 192 kts | 237° |
| 2026-05-04 19:43 | 53.45407 | -2.06692 | 3176 ft | 179 kts | 235° |
| 2026-05-04 19:43 | 53.44662 | -2.08321 | 2955 ft | 173 kts | 233° |
| 2026-05-04 19:43 | 53.43922 | -2.09872 | 2721 ft | 166 kts | 233° |
| 2026-05-04 19:44 | 53.43223 | -2.11320 | 2463 ft | 153 kts | 233° |
| 2026-05-04 19:44 | 53.42578 | -2.12655 | 2261 ft | 143 kts | 233° |
| 2026-05-04 19:44 | 53.41955 | -2.13943 | 2073 ft | 142 kts | 233° |
| 2026-05-04 19:44 | 53.41335 | -2.15222 | 1885 ft | 141 kts | 233° |
| 2026-05-04 19:45 | 53.40727 | -2.16478 | 1706 ft | 141 kts | 233° |
| 2026-05-04 19:45 | 53.40110 | -2.17752 | 1516 ft | 140 kts | 233° |
| 2026-05-04 19:45 | 53.39504 | -2.19002 | 1337 ft | 140 kts | 233° |
| 2026-05-04 19:45 | 53.38891 | -2.20266 | 1149 ft | 140 kts | 233° |
| 2026-05-04 19:46 | 53.38278 | -2.21527 | 962 ft | 139 kts | 232° |
| 2026-05-04 19:46 | 53.37672 | -2.22774 | 754 ft | 137 kts | 230° |
| 2026-05-04 19:46 | 53.37068 | -2.23994 | 581 ft | 136 kts | 229° |
| 2026-05-04 19:46 | 53.36499 | -2.25177 | 404 ft | 135 kts | 230° |
| 2026-05-04 19:47 | 53.35906 | -2.26373 | 278 ft | 131 kts | 232° |
| 2026-05-04 19:47 | 53.35326 | -2.27564 | 534 ft | 144 kts | 233° |
| 2026-05-04 19:47 | 53.34716 | -2.28843 | 1650 ft | 148 kts | 232° |
| 2026-05-04 19:47 | 53.34056 | -2.30288 | 2666 ft | 165 kts | 231° |
| 2026-05-04 19:48 | 53.33106 | -2.31677 | 3195 ft | 204 kts | 206° |
| 2026-05-04 19:48 | 53.31673 | -2.31849 | 3423 ft | 213 kts | 161° |
| 2026-05-04 19:48 | 53.30539 | -2.30347 | 3409 ft | 210 kts | 120° |
| 2026-05-04 19:48 | 53.29811 | -2.28232 | 3301 ft | 212 kts | 120° |
| 2026-05-04 19:49 | 53.29372 | -2.25893 | 3308 ft | 213 kts | 99° |
| 2026-05-04 19:49 | 53.29168 | -2.23479 | 3328 ft | 213 kts | 92° |
| 2026-05-04 19:49 | 53.29422 | -2.21023 | 3353 ft | 213 kts | 72° |
| 2026-05-04 19:49 | 53.30006 | -2.18769 | 3359 ft | 212 kts | 60° |
| 2026-05-04 19:50 | 53.30729 | -2.16660 | 3364 ft | 212 kts | 59° |
| 2026-05-04 19:50 | 53.31472 | -2.14535 | 3360 ft | 212 kts | 59° |
| 2026-05-04 19:50 | 53.32218 | -2.12405 | 3359 ft | 212 kts | 59° |
| 2026-05-04 19:50 | 53.32963 | -2.10279 | 3354 ft | 212 kts | 59° |
| 2026-05-04 19:51 | 53.33709 | -2.08151 | 3353 ft | 212 kts | 59° |
| 2026-05-04 19:51 | 53.34501 | -2.05899 | 3374 ft | 233 kts | 59° |
| 2026-05-04 19:51 | 53.35325 | -2.03554 | 3368 ft | 234 kts | 59° |
| 2026-05-04 19:51 | 53.36149 | -2.01208 | 3364 ft | 234 kts | 58° |
| 2026-05-04 19:52 | 53.37201 | -1.99212 | 3346 ft | 223 kts | 33° |
| 2026-05-04 19:52 | 53.38576 | -1.98283 | 3333 ft | 211 kts | 7° |
| 2026-05-04 19:52 | 53.40021 | -1.98419 | 3344 ft | 209 kts | 342° |
| 2026-05-04 19:52 | 53.41334 | -1.99436 | 3349 ft | 208 kts | 329° |
| 2026-05-04 19:53 | 53.42581 | -2.00648 | 3352 ft | 208 kts | 329° |
| 2026-05-04 19:53 | 53.43841 | -2.01821 | 3349 ft | 207 kts | 330° |
| 2026-05-04 19:53 | 53.45085 | -2.02975 | 3343 ft | 207 kts | 326° |
| 2026-05-04 19:53 | 53.46053 | -2.04604 | 3320 ft | 187 kts | 295° |
| 2026-05-04 19:54 | 53.46200 | -2.06669 | 3091 ft | 181 kts | 251° |
| 2026-05-04 19:54 | 53.45446 | -2.08319 | 2939 ft | 182 kts | 218° |
| 2026-05-04 19:54 | 53.44469 | -2.09537 | 2815 ft | 164 kts | 219° |
| 2026-05-04 19:54 | 53.43676 | -2.10710 | 2610 ft | 140 kts | 226° |
| 2026-05-04 19:55 | 53.43030 | -2.11860 | 2395 ft | 134 kts | 230° |
| 2026-05-04 19:55 | 53.42420 | -2.13039 | 2208 ft | 134 kts | 231° |
| 2026-05-04 19:55 | 53.41823 | -2.14230 | 2034 ft | 133 kts | 233° |
| 2026-05-04 19:55 | 53.41236 | -2.15430 | 1856 ft | 133 kts | 233° |
| 2026-05-04 19:56 | 53.40653 | -2.16631 | 1685 ft | 133 kts | 234° |
| 2026-05-04 19:56 | 53.40071 | -2.17831 | 1506 ft | 133 kts | 234° |
| 2026-05-04 19:56 | 53.39488 | -2.19034 | 1328 ft | 133 kts | 234° |
| 2026-05-04 19:56 | 53.38907 | -2.20232 | 1151 ft | 133 kts | 234° |
| 2026-05-04 19:57 | 53.38323 | -2.21428 | 964 ft | 133 kts | 234° |
| 2026-05-04 19:57 | 53.37730 | -2.22609 | 770 ft | 132 kts | 234° |
| 2026-05-04 19:57 | 53.37155 | -2.23806 | 599 ft | 132 kts | 233° |
| 2026-05-04 19:57 | 53.36579 | -2.24995 | 448 ft | 132 kts | 233° |
| 2026-05-04 19:58 | 53.36011 | -2.26175 | 286 ft | 131 kts | 233° |
| 2026-05-04 19:58 | 53.35483 | -2.27270 | 254 ft | 100 kts | 232° |
| 2026-05-04 19:58 | 53.35288 | -2.27724 | 244 ft | 34 kts | 248° |
| 2026-05-04 19:58 | 53.35242 | -2.28038 | 237 ft | 18 kts | 261° |
| 2026-05-04 19:59 | 53.35237 | -2.28081 | 236 ft | 4 kts | 258° |
| 2026-05-04 19:59 | 53.35231 | -2.28144 | 238 ft | 7 kts | 261° |
| 2026-05-04 19:59 | 53.35262 | -2.28220 | 237 ft | 9 kts | 359° |
| 2026-05-04 19:59 | 53.35324 | -2.28133 | 240 ft | 15 kts | 45° |
| 2026-05-04 20:00 | 53.35408 | -2.27997 | 242 ft | 18 kts | 43° |
| 2026-05-04 20:00 | 53.35458 | -2.27890 | 244 ft | 11 kts | 72° |
| 2026-05-04 20:00 | 53.35459 | -2.27809 | 245 ft | 7 kts | 81° |
| 2026-05-04 20:00 | 53.35493 | -2.27717 | 244 ft | 11 kts | 51° |
| 2026-05-04 20:01 | 53.35552 | -2.27597 | 247 ft | 16 kts | 51° |
| 2026-05-04 20:01 | 53.35629 | -2.27431 | 252 ft | 20 kts | 50° |
| 2026-05-04 20:01 | 53.35719 | -2.27243 | 260 ft | 21 kts | 51° |
| 2026-05-04 20:01 | 53.35816 | -2.27041 | 261 ft | 23 kts | 60° |
| 2026-05-04 20:02 | 53.35890 | -2.26859 | 261 ft | 17 kts | 50° |
| 2026-05-04 20:02 | 53.35921 | -2.26877 | 261 ft | 7 kts | 274° |
| 2026-05-04 20:02 | 53.35923 | -2.26954 | 261 ft | 5 kts | 276° |
| 2026-05-04 20:02 | 53.35925 | -2.26987 | 261 ft | 0 kts | 273° |